Terminal Aerodrome Forecast
Issued by NWS

Home | Current Version | Previous Version | Graphics & Text | Print | Product List | Glossary On
Versions: 1 2 3 4 5 6 7 8 9 10 11 12 13 14 15
000
FTUS43 KGRB 041100
TAFMTW
TAF
KMTW 041120Z 0412/0512 VRB03KT 3SM BR SCT004 BKN200
      TEMPO 0412/0413 1/4SM FG BKN002
     FM041500 04010KT P6SM SCT070 SCT200
     FM042100 06008KT P6SM SCT100 BKN250
     FM050900 05004KT P6SM BKN100 OVC200=

USA.gov is the U.S. government's official web portal to all federal, state and local government web resources and services.